sensor_id;sensor_type;location;lat;lon;timestamp;temperature;humidity
9103;DHT22;4587;51.434;6.788;2024-03-02T00:00:20;9.00;99.90
9103;DHT22;4587;51.434;6.788;2024-03-02T00:02:47;9.00;99.90
9103;DHT22;4587;51.434;6.788;2024-03-02T00:05:18;9.00;99.90
9103;DHT22;4587;51.434;6.788;2024-03-02T00:07:45;9.10;99.90
9103;DHT22;4587;51.434;6.788;2024-03-02T00:10:14;9.20;99.90
9103;DHT22;4587;51.434;6.788;2024-03-02T00:12:42;9.10;99.90
9103;DHT22;4587;51.434;6.788;2024-03-02T00:17:56;9.20;99.90
9103;DHT22;4587;51.434;6.788;2024-03-02T00:20:23;9.10;99.90
9103;DHT22;4587;51.434;6.788;2024-03-02T00:22:50;9.00;99.90
9103;DHT22;4587;51.434;6.788;2024-03-02T00:25:16;9.20;99.90
9103;DHT22;4587;51.434;6.788;2024-03-02T00:27:42;9.20;99.90
9103;DHT22;4587;51.434;6.788;2024-03-02T00:32:53;9.20;99.90
9103;DHT22;4587;51.434;6.788;2024-03-02T00:35:20;9.30;99.90
9103;DHT22;4587;51.434;6.788;2024-03-02T00:37:47;9.30;99.90
9103;DHT22;4587;51.434;6.788;2024-03-02T00:40:13;9.30;99.90
9103;DHT22;4587;51.434;6.788;2024-03-02T00:42:40;9.40;99.90
9103;DHT22;4587;51.434;6.788;2024-03-02T00:45:08;9.40;99.90
9103;DHT22;4587;51.434;6.788;2024-03-02T00:47:38;9.40;99.90
9103;DHT22;4587;51.434;6.788;2024-03-02T00:50:05;9.40;99.90
9103;DHT22;4587;51.434;6.788;2024-03-02T00:52:31;9.40;99.90
9103;DHT22;4587;51.434;6.788;2024-03-02T00:54:58;9.50;99.90
9103;DHT22;4587;51.434;6.788;2024-03-02T00:57:24;9.60;99.90
9103;DHT22;4587;51.434;6.788;2024-03-02T00:59:51;9.60;99.90
9103;DHT22;4587;51.434;6.788;2024-03-02T01:02:17;9.70;99.90
9103;DHT22;4587;51.434;6.788;2024-03-02T01:04:42;9.70;99.90
9103;DHT22;4587;51.434;6.788;2024-03-02T01:07:08;9.70;99.90
9103;DHT22;4587;51.434;6.788;2024-03-02T01:09:33;9.70;99.90
9103;DHT22;4587;51.434;6.788;2024-03-02T01:11:59;9.60;99.90
9103;DHT22;4587;51.434;6.788;2024-03-02T01:14:24;9.60;99.90
9103;DHT22;4587;51.434;6.788;2024-03-02T01:16:50;9.70;99.90
9103;DHT22;4587;51.434;6.788;2024-03-02T01:19:15;9.60;99.90
9103;DHT22;4587;51.434;6.788;2024-03-02T01:21:41;9.70;99.90
9103;DHT22;4587;51.434;6.788;2024-03-02T01:24:06;9.70;99.90
9103;DHT22;4587;51.434;6.788;2024-03-02T01:26:32;9.70;99.90
9103;DHT22;4587;51.434;6.788;2024-03-02T01:28:57;9.70;99.90
9103;DHT22;4587;51.434;6.788;2024-03-02T01:31:23;9.70;99.90
9103;DHT22;4587;51.434;6.788;2024-03-02T01:33:49;9.60;99.90
9103;DHT22;4587;51.434;6.788;2024-03-02T01:36:14;9.60;99.90
9103;DHT22;4587;51.434;6.788;2024-03-02T01:38:40;9.50;99.90
9103;DHT22;4587;51.434;6.788;2024-03-02T01:41:05;9.50;99.90
9103;DHT22;4587;51.434;6.788;2024-03-02T01:43:31;9.40;99.90
9103;DHT22;4587;51.434;6.788;2024-03-02T01:45:56;9.30;99.90
9103;DHT22;4587;51.434;6.788;2024-03-02T01:48:22;9.30;99.90
9103;DHT22;4587;51.434;6.788;2024-03-02T01:50:47;9.30;99.90
9103;DHT22;4587;51.434;6.788;2024-03-02T01:53:13;9.30;99.90
9103;DHT22;4587;51.434;6.788;2024-03-02T01:55:38;9.30;99.90
9103;DHT22;4587;51.434;6.788;2024-03-02T01:58:04;9.30;99.90
9103;DHT22;4587;51.434;6.788;2024-03-02T02:00:30;9.30;99.90
9103;DHT22;4587;51.434;6.788;2024-03-02T02:02:55;9.30;99.90
9103;DHT22;4587;51.434;6.788;2024-03-02T02:05:22;9.40;99.90
9103;DHT22;4587;51.434;6.788;2024-03-02T02:07:48;9.30;99.90
9103;DHT22;4587;51.434;6.788;2024-03-02T02:10:14;9.30;99.90
9103;DHT22;4587;51.434;6.788;2024-03-02T02:12:40;9.40;99.90
9103;DHT22;4587;51.434;6.788;2024-03-02T02:15:27;9.50;99.90
9103;DHT22;4587;51.434;6.788;2024-03-02T02:17:57;9.50;99.90
9103;DHT22;4587;51.434;6.788;2024-03-02T02:20:23;9.60;99.90
9103;DHT22;4587;51.434;6.788;2024-03-02T02:23:00;9.60;99.90
9103;DHT22;4587;51.434;6.788;2024-03-02T02:25:26;9.70;99.90
9103;DHT22;4587;51.434;6.788;2024-03-02T02:27:52;9.70;99.90
9103;DHT22;4587;51.434;6.788;2024-03-02T02:30:23;9.70;99.90
9103;DHT22;4587;51.434;6.788;2024-03-02T02:32:48;9.70;99.90
9103;DHT22;4587;51.434;6.788;2024-03-02T02:35:14;9.80;99.90
9103;DHT22;4587;51.434;6.788;2024-03-02T02:37:40;9.70;99.90
9103;DHT22;4587;51.434;6.788;2024-03-02T02:40:06;9.70;99.90
9103;DHT22;4587;51.434;6.788;2024-03-02T02:42:31;9.70;99.90
9103;DHT22;4587;51.434;6.788;2024-03-02T02:44:57;9.80;99.90
9103;DHT22;4587;51.434;6.788;2024-03-02T02:47:22;9.70;99.90
9103;DHT22;4587;51.434;6.788;2024-03-02T02:49:48;9.80;99.90
9103;DHT22;4587;51.434;6.788;2024-03-02T02:52:13;9.70;99.90
9103;DHT22;4587;51.434;6.788;2024-03-02T02:54:39;9.80;99.90
9103;DHT22;4587;51.434;6.788;2024-03-02T02:57:04;9.80;99.90
9103;DHT22;4587;51.434;6.788;2024-03-02T02:59:30;9.80;99.90
9103;DHT22;4587;51.434;6.788;2024-03-02T03:01:55;9.80;99.90
9103;DHT22;4587;51.434;6.788;2024-03-02T03:04:21;9.70;99.90
9103;DHT22;4587;51.434;6.788;2024-03-02T03:06:46;9.70;99.90
9103;DHT22;4587;51.434;6.788;2024-03-02T03:09:12;9.70;99.90
9103;DHT22;4587;51.434;6.788;2024-03-02T03:11:37;9.80;99.90
9103;DHT22;4587;51.434;6.788;2024-03-02T03:14:03;9.80;99.90
9103;DHT22;4587;51.434;6.788;2024-03-02T03:16:30;9.70;99.90
9103;DHT22;4587;51.434;6.788;2024-03-02T03:18:55;9.70;99.90
9103;DHT22;4587;51.434;6.788;2024-03-02T03:21:21;9.80;99.90
9103;DHT22;4587;51.434;6.788;2024-03-02T03:23:46;9.80;99.90
9103;DHT22;4587;51.434;6.788;2024-03-02T03:26:12;9.70;99.90
9103;DHT22;4587;51.434;6.788;2024-03-02T03:28:37;9.70;99.90
9103;DHT22;4587;51.434;6.788;2024-03-02T03:31:04;9.80;99.90
9103;DHT22;4587;51.434;6.788;2024-03-02T03:33:29;9.80;99.90
9103;DHT22;4587;51.434;6.788;2024-03-02T03:35:55;9.90;99.90
9103;DHT22;4587;51.434;6.788;2024-03-02T03:38:20;9.90;99.90
9103;DHT22;4587;51.434;6.788;2024-03-02T03:40:46;9.90;99.90
9103;DHT22;4587;51.434;6.788;2024-03-02T03:43:12;9.90;99.90
9103;DHT22;4587;51.434;6.788;2024-03-02T03:45:38;9.80;99.90
9103;DHT22;4587;51.434;6.788;2024-03-02T03:48:04;9.80;99.90
9103;DHT22;4587;51.434;6.788;2024-03-02T03:50:29;9.70;99.90
9103;DHT22;4587;51.434;6.788;2024-03-02T03:52:55;9.70;99.90
9103;DHT22;4587;51.434;6.788;2024-03-02T03:55:20;9.60;99.90
9103;DHT22;4587;51.434;6.788;2024-03-02T03:57:46;9.50;99.90
9103;DHT22;4587;51.434;6.788;2024-03-02T04:00:12;9.50;99.90
9103;DHT22;4587;51.434;6.788;2024-03-02T04:02:38;9.40;99.90
9103;DHT22;4587;51.434;6.788;2024-03-02T04:05:04;9.40;99.90
9103;DHT22;4587;51.434;6.788;2024-03-02T04:07:35;9.40;99.90
9103;DHT22;4587;51.434;6.788;2024-03-02T04:10:08;9.30;99.90
9103;DHT22;4587;51.434;6.788;2024-03-02T04:12:35;9.30;99.90
9103;DHT22;4587;51.434;6.788;2024-03-02T04:15:02;9.20;99.90
9103;DHT22;4587;51.434;6.788;2024-03-02T04:17:29;9.10;99.90
9103;DHT22;4587;51.434;6.788;2024-03-02T04:19:56;9.00;99.90
9103;DHT22;4587;51.434;6.788;2024-03-02T04:22:21;8.90;99.90
9103;DHT22;4587;51.434;6.788;2024-03-02T04:24:47;8.80;99.90
9103;DHT22;4587;51.434;6.788;2024-03-02T04:27:12;8.80;99.90
9103;DHT22;4587;51.434;6.788;2024-03-02T04:29:38;8.80;99.90
9103;DHT22;4587;51.434;6.788;2024-03-02T04:32:03;8.70;99.90
9103;DHT22;4587;51.434;6.788;2024-03-02T04:34:29;8.70;99.90
9103;DHT22;4587;51.434;6.788;2024-03-02T04:36:55;8.60;99.90
9103;DHT22;4587;51.434;6.788;2024-03-02T04:39:21;8.60;99.90
9103;DHT22;4587;51.434;6.788;2024-03-02T04:41:46;8.50;99.90
9103;DHT22;4587;51.434;6.788;2024-03-02T04:44:13;8.40;99.90
9103;DHT22;4587;51.434;6.788;2024-03-02T04:46:38;8.40;99.90
9103;DHT22;4587;51.434;6.788;2024-03-02T04:49:04;8.40;99.90
9103;DHT22;4587;51.434;6.788;2024-03-02T04:51:30;8.40;99.90
9103;DHT22;4587;51.434;6.788;2024-03-02T04:53:55;8.30;99.90
9103;DHT22;4587;51.434;6.788;2024-03-02T04:56:21;8.40;99.90
9103;DHT22;4587;51.434;6.788;2024-03-02T04:59:10;8.40;99.90
9103;DHT22;4587;51.434;6.788;2024-03-02T05:01:35;8.50;99.90
9103;DHT22;4587;51.434;6.788;2024-03-02T05:04:01;8.50;99.90
9103;DHT22;4587;51.434;6.788;2024-03-02T05:06:27;8.50;99.90
9103;DHT22;4587;51.434;6.788;2024-03-02T05:08:52;8.50;99.90
9103;DHT22;4587;51.434;6.788;2024-03-02T05:11:18;8.40;99.90
9103;DHT22;4587;51.434;6.788;2024-03-02T05:14:01;8.30;99.90
9103;DHT22;4587;51.434;6.788;2024-03-02T05:16:27;8.30;99.90
9103;DHT22;4587;51.434;6.788;2024-03-02T05:18:52;8.30;99.90
9103;DHT22;4587;51.434;6.788;2024-03-02T05:21:18;8.30;99.90
9103;DHT22;4587;51.434;6.788;2024-03-02T05:23:43;8.20;99.90
9103;DHT22;4587;51.434;6.788;2024-03-02T05:26:10;8.20;99.90
9103;DHT22;4587;51.434;6.788;2024-03-02T05:28:38;8.20;99.90
9103;DHT22;4587;51.434;6.788;2024-03-02T05:31:04;8.20;99.90
9103;DHT22;4587;51.434;6.788;2024-03-02T05:33:29;8.10;99.90
9103;DHT22;4587;51.434;6.788;2024-03-02T05:35:56;8.00;99.90
9103;DHT22;4587;51.434;6.788;2024-03-02T05:38:22;8.10;99.90
9103;DHT22;4587;51.434;6.788;2024-03-02T05:40:48;8.00;99.90
9103;DHT22;4587;51.434;6.788;2024-03-02T05:43:13;8.00;99.90
9103;DHT22;4587;51.434;6.788;2024-03-02T05:45:39;7.90;99.90
9103;DHT22;4587;51.434;6.788;2024-03-02T05:48:06;7.90;99.90
9103;DHT22;4587;51.434;6.788;2024-03-02T05:50:33;7.90;99.90
9103;DHT22;4587;51.434;6.788;2024-03-02T05:52:58;7.80;99.90
9103;DHT22;4587;51.434;6.788;2024-03-02T05:55:24;7.80;99.90
9103;DHT22;4587;51.434;6.788;2024-03-02T05:57:50;7.80;99.90
9103;DHT22;4587;51.434;6.788;2024-03-02T06:00:41;7.90;99.90
9103;DHT22;4587;51.434;6.788;2024-03-02T06:03:06;8.00;99.90
9103;DHT22;4587;51.434;6.788;2024-03-02T06:05:33;8.10;99.90
9103;DHT22;4587;51.434;6.788;2024-03-02T06:07:58;7.90;99.90
9103;DHT22;4587;51.434;6.788;2024-03-02T06:10:24;8.00;99.90
9103;DHT22;4587;51.434;6.788;2024-03-02T06:12:49;8.10;99.90
9103;DHT22;4587;51.434;6.788;2024-03-02T06:15:15;8.10;99.90
9103;DHT22;4587;51.434;6.788;2024-03-02T06:17:41;8.10;99.90
9103;DHT22;4587;51.434;6.788;2024-03-02T06:20:06;8.10;99.90
9103;DHT22;4587;51.434;6.788;2024-03-02T06:22:34;8.10;99.90
9103;DHT22;4587;51.434;6.788;2024-03-02T06:25:00;8.10;99.90
9103;DHT22;4587;51.434;6.788;2024-03-02T06:27:25;8.10;99.90
9103;DHT22;4587;51.434;6.788;2024-03-02T06:29:51;8.20;99.90
9103;DHT22;4587;51.434;6.788;2024-03-02T06:32:17;8.20;99.90
9103;DHT22;4587;51.434;6.788;2024-03-02T06:34:42;8.10;99.90
9103;DHT22;4587;51.434;6.788;2024-03-02T06:37:08;8.10;99.90
9103;DHT22;4587;51.434;6.788;2024-03-02T06:39:33;8.10;99.90
9103;DHT22;4587;51.434;6.788;2024-03-02T06:42:00;8.10;99.90
9103;DHT22;4587;51.434;6.788;2024-03-02T06:44:25;8.10;99.90
9103;DHT22;4587;51.434;6.788;2024-03-02T06:46:51;8.10;99.90
9103;DHT22;4587;51.434;6.788;2024-03-02T06:49:16;8.10;99.90
9103;DHT22;4587;51.434;6.788;2024-03-02T06:51:44;8.20;99.90
9103;DHT22;4587;51.434;6.788;2024-03-02T06:54:09;8.30;99.90
9103;DHT22;4587;51.434;6.788;2024-03-02T06:56:35;8.40;99.90
9103;DHT22;4587;51.434;6.788;2024-03-02T06:59:01;8.50;99.90
9103;DHT22;4587;51.434;6.788;2024-03-02T07:01:26;8.60;99.90
9103;DHT22;4587;51.434;6.788;2024-03-02T07:03:53;8.80;99.90
9103;DHT22;4587;51.434;6.788;2024-03-02T07:06:19;9.00;99.90
9103;DHT22;4587;51.434;6.788;2024-03-02T07:08:44;9.20;99.90
9103;DHT22;4587;51.434;6.788;2024-03-02T07:11:10;9.40;99.90
9103;DHT22;4587;51.434;6.788;2024-03-02T07:13:35;9.50;99.90
9103;DHT22;4587;51.434;6.788;2024-03-02T07:16:01;9.60;99.90
9103;DHT22;4587;51.434;6.788;2024-03-02T07:18:30;9.60;99.90
9103;DHT22;4587;51.434;6.788;2024-03-02T07:20:56;9.60;99.90
9103;DHT22;4587;51.434;6.788;2024-03-02T07:23:24;9.60;99.90
9103;DHT22;4587;51.434;6.788;2024-03-02T07:25:52;9.60;99.90
9103;DHT22;4587;51.434;6.788;2024-03-02T07:28:22;9.60;99.90
9103;DHT22;4587;51.434;6.788;2024-03-02T07:30:47;9.70;99.90
9103;DHT22;4587;51.434;6.788;2024-03-02T07:33:14;9.70;99.90
9103;DHT22;4587;51.434;6.788;2024-03-02T07:35:42;9.90;99.90
9103;DHT22;4587;51.434;6.788;2024-03-02T07:38:08;11.00;99.90
9103;DHT22;4587;51.434;6.788;2024-03-02T07:40:34;12.50;99.90
9103;DHT22;4587;51.434;6.788;2024-03-02T07:42:59;13.40;99.90
9103;DHT22;4587;51.434;6.788;2024-03-02T07:45:25;14.40;99.90
9103;DHT22;4587;51.434;6.788;2024-03-02T07:47:50;15.20;99.90
9103;DHT22;4587;51.434;6.788;2024-03-02T07:50:16;16.00;99.90
9103;DHT22;4587;51.434;6.788;2024-03-02T07:52:41;16.70;99.90
9103;DHT22;4587;51.434;6.788;2024-03-02T07:55:07;16.30;99.90
9103;DHT22;4587;51.434;6.788;2024-03-02T07:57:33;16.50;99.90
9103;DHT22;4587;51.434;6.788;2024-03-02T07:59:58;17.30;99.90
9103;DHT22;4587;51.434;6.788;2024-03-02T08:02:24;17.70;99.90
9103;DHT22;4587;51.434;6.788;2024-03-02T08:04:50;16.80;99.90
9103;DHT22;4587;51.434;6.788;2024-03-02T08:07:16;15.60;99.90
9103;DHT22;4587;51.434;6.788;2024-03-02T08:09:41;14.90;99.90
9103;DHT22;4587;51.434;6.788;2024-03-02T08:12:07;14.20;99.90
9103;DHT22;4587;51.434;6.788;2024-03-02T08:14:32;13.80;99.90
9103;DHT22;4587;51.434;6.788;2024-03-02T08:16:58;13.60;99.90
9103;DHT22;4587;51.434;6.788;2024-03-02T08:19:23;13.80;99.90
9103;DHT22;4587;51.434;6.788;2024-03-02T08:21:49;14.20;99.90
9103;DHT22;4587;51.434;6.788;2024-03-02T08:24:15;14.80;99.90
9103;DHT22;4587;51.434;6.788;2024-03-02T08:26:40;14.80;99.90
9103;DHT22;4587;51.434;6.788;2024-03-02T08:29:06;15.90;99.90
9103;DHT22;4587;51.434;6.788;2024-03-02T08:31:31;16.90;99.90
9103;DHT22;4587;51.434;6.788;2024-03-02T08:33:57;16.40;99.90
9103;DHT22;4587;51.434;6.788;2024-03-02T08:36:23;15.90;99.90
9103;DHT22;4587;51.434;6.788;2024-03-02T08:38:51;16.40;99.90
9103;DHT22;4587;51.434;6.788;2024-03-02T08:41:17;17.50;99.90
9103;DHT22;4587;51.434;6.788;2024-03-02T08:43:43;18.50;99.90
9103;DHT22;4587;51.434;6.788;2024-03-02T08:46:08;19.00;99.20
9103;DHT22;4587;51.434;6.788;2024-03-02T08:48:34;19.40;98.40
9103;DHT22;4587;51.434;6.788;2024-03-02T08:51:00;19.20;97.60
9103;DHT22;4587;51.434;6.788;2024-03-02T08:53:25;19.40;97.60
9103;DHT22;4587;51.434;6.788;2024-03-02T08:55:51;19.20;96.90
9103;DHT22;4587;51.434;6.788;2024-03-02T08:58:17;18.90;97.10
9103;DHT22;4587;51.434;6.788;2024-03-02T09:00:42;18.90;97.30
9103;DHT22;4587;51.434;6.788;2024-03-02T09:03:08;19.10;96.60
9103;DHT22;4587;51.434;6.788;2024-03-02T09:05:34;19.00;96.60
9103;DHT22;4587;51.434;6.788;2024-03-02T09:07:59;19.10;96.60
9103;DHT22;4587;51.434;6.788;2024-03-02T09:10:25;19.50;96.60
9103;DHT22;4587;51.434;6.788;2024-03-02T09:12:50;20.00;96.00
9103;DHT22;4587;51.434;6.788;2024-03-02T09:15:16;20.30;95.90
9103;DHT22;4587;51.434;6.788;2024-03-02T09:17:41;20.50;95.40
9103;DHT22;4587;51.434;6.788;2024-03-02T09:20:07;20.10;94.70
9103;DHT22;4587;51.434;6.788;2024-03-02T09:22:33;19.90;94.60
9103;DHT22;4587;51.434;6.788;2024-03-02T09:24:58;19.50;95.00
9103;DHT22;4587;51.434;6.788;2024-03-02T09:27:24;19.60;95.10
9103;DHT22;4587;51.434;6.788;2024-03-02T09:29:50;19.00;95.10
9103;DHT22;4587;51.434;6.788;2024-03-02T09:32:15;18.80;95.70
9103;DHT22;4587;51.434;6.788;2024-03-02T09:34:41;19.10;95.60
9103;DHT22;4587;51.434;6.788;2024-03-02T09:37:07;18.90;95.00
9103;DHT22;4587;51.434;6.788;2024-03-02T09:39:33;18.90;95.20
9103;DHT22;4587;51.434;6.788;2024-03-02T09:42:03;19.50;95.70
9103;DHT22;4587;51.434;6.788;2024-03-02T09:44:29;19.00;94.60
9103;DHT22;4587;51.434;6.788;2024-03-02T09:46:55;18.40;95.40
9103;DHT22;4587;51.434;6.788;2024-03-02T09:49:21;18.70;96.10
9103;DHT22;4587;51.434;6.788;2024-03-02T09:51:48;19.00;95.50
9103;DHT22;4587;51.434;6.788;2024-03-02T09:54:15;18.80;95.50
9103;DHT22;4587;51.434;6.788;2024-03-02T09:56:40;18.20;95.10
9103;DHT22;4587;51.434;6.788;2024-03-02T09:59:06;16.40;95.90
9103;DHT22;4587;51.434;6.788;2024-03-02T10:01:31;16.30;97.60
9103;DHT22;4587;51.434;6.788;2024-03-02T10:04:01;15.70;97.90
9103;DHT22;4587;51.434;6.788;2024-03-02T10:06:28;15.20;98.70
9103;DHT22;4587;51.434;6.788;2024-03-02T10:08:55;14.90;99.40
9103;DHT22;4587;51.434;6.788;2024-03-02T10:11:31;14.70;99.90
9103;DHT22;4587;51.434;6.788;2024-03-02T10:14:05;14.50;99.90
9103;DHT22;4587;51.434;6.788;2024-03-02T10:16:36;14.40;99.90
9103;DHT22;4587;51.434;6.788;2024-03-02T10:19:20;14.10;99.90
9103;DHT22;4587;51.434;6.788;2024-03-02T10:21:51;14.00;99.90
9103;DHT22;4587;51.434;6.788;2024-03-02T10:24:21;13.90;99.90
9103;DHT22;4587;51.434;6.788;2024-03-02T10:26:47;13.90;99.90
9103;DHT22;4587;51.434;6.788;2024-03-02T10:29:13;13.90;99.90
9103;DHT22;4587;51.434;6.788;2024-03-02T10:31:43;13.90;99.90
9103;DHT22;4587;51.434;6.788;2024-03-02T10:34:10;13.80;99.90
9103;DHT22;4587;51.434;6.788;2024-03-02T10:36:37;13.70;99.90
9103;DHT22;4587;51.434;6.788;2024-03-02T10:39:04;13.80;99.90
9103;DHT22;4587;51.434;6.788;2024-03-02T10:41:35;13.80;99.90
9103;DHT22;4587;51.434;6.788;2024-03-02T10:44:08;13.80;99.90
9103;DHT22;4587;51.434;6.788;2024-03-02T10:46:36;13.80;99.90
9103;DHT22;4587;51.434;6.788;2024-03-02T10:49:03;13.90;99.90
9103;DHT22;4587;51.434;6.788;2024-03-02T10:51:31;14.00;99.90
9103;DHT22;4587;51.434;6.788;2024-03-02T10:54:00;14.00;99.90
9103;DHT22;4587;51.434;6.788;2024-03-02T10:56:31;14.00;99.90
9103;DHT22;4587;51.434;6.788;2024-03-02T10:59:50;13.90;99.90
9103;DHT22;4587;51.434;6.788;2024-03-02T11:01:57;13.90;99.90
9103;DHT22;4587;51.434;6.788;2024-03-02T11:04:27;13.80;99.90
9103;DHT22;4587;51.434;6.788;2024-03-02T11:06:59;13.90;99.90
9103;DHT22;4587;51.434;6.788;2024-03-02T11:09:27;14.00;99.90
9103;DHT22;4587;51.434;6.788;2024-03-02T11:14:43;14.00;99.90
9103;DHT22;4587;51.434;6.788;2024-03-02T11:17:09;14.00;99.90
9103;DHT22;4587;51.434;6.788;2024-03-02T11:19:38;14.00;99.90
9103;DHT22;4587;51.434;6.788;2024-03-02T11:22:04;14.00;99.90
9103;DHT22;4587;51.434;6.788;2024-03-02T11:24:30;14.00;99.90
9103;DHT22;4587;51.434;6.788;2024-03-02T11:27:00;14.10;99.90
9103;DHT22;4587;51.434;6.788;2024-03-02T11:32:02;14.10;99.90
9103;DHT22;4587;51.434;6.788;2024-03-02T11:34:31;14.10;99.90
9103;DHT22;4587;51.434;6.788;2024-03-02T11:36:57;14.10;99.90
9103;DHT22;4587;51.434;6.788;2024-03-02T11:39:27;14.10;99.90
9103;DHT22;4587;51.434;6.788;2024-03-02T11:41:53;14.10;99.90
9103;DHT22;4587;51.434;6.788;2024-03-02T11:44:19;14.20;99.90
9103;DHT22;4587;51.434;6.788;2024-03-02T11:47:01;14.20;99.90
9103;DHT22;4587;51.434;6.788;2024-03-02T11:52:08;14.10;99.90
9103;DHT22;4587;51.434;6.788;2024-03-02T11:54:37;14.10;99.90
9103;DHT22;4587;51.434;6.788;2024-03-02T11:57:08;14.10;99.90
9103;DHT22;4587;51.434;6.788;2024-03-02T11:59:34;14.10;99.90
9103;DHT22;4587;51.434;6.788;2024-03-02T12:02:00;14.10;99.90
9103;DHT22;4587;51.434;6.788;2024-03-02T12:04:26;14.10;99.90
9103;DHT22;4587;51.434;6.788;2024-03-02T12:06:56;14.10;99.90
9103;DHT22;4587;51.434;6.788;2024-03-02T12:09:25;14.10;99.90
9103;DHT22;4587;51.434;6.788;2024-03-02T12:12:04;14.20;99.90
9103;DHT22;4587;51.434;6.788;2024-03-02T12:14:31;14.40;99.90
9103;DHT22;4587;51.434;6.788;2024-03-02T12:16:57;14.40;99.90
9103;DHT22;4587;51.434;6.788;2024-03-02T12:19:24;14.50;99.90
9103;DHT22;4587;51.434;6.788;2024-03-02T12:21:51;14.40;99.90
9103;DHT22;4587;51.434;6.788;2024-03-02T12:24:16;14.30;99.90
9103;DHT22;4587;51.434;6.788;2024-03-02T12:26:42;14.30;99.90
9103;DHT22;4587;51.434;6.788;2024-03-02T12:29:08;14.20;99.90
9103;DHT22;4587;51.434;6.788;2024-03-02T12:31:34;14.20;99.90
9103;DHT22;4587;51.434;6.788;2024-03-02T12:34:01;14.30;99.90
9103;DHT22;4587;51.434;6.788;2024-03-02T12:36:27;14.30;99.90
9103;DHT22;4587;51.434;6.788;2024-03-02T12:38:53;14.40;99.90
9103;DHT22;4587;51.434;6.788;2024-03-02T12:41:20;14.40;99.90
9103;DHT22;4587;51.434;6.788;2024-03-02T12:43:46;14.50;99.90
9103;DHT22;4587;51.434;6.788;2024-03-02T12:46:12;14.60;99.90
9103;DHT22;4587;51.434;6.788;2024-03-02T12:48:37;14.60;99.90
9103;DHT22;4587;51.434;6.788;2024-03-02T12:51:06;14.60;99.90
9103;DHT22;4587;51.434;6.788;2024-03-02T12:53:32;14.60;99.90
9103;DHT22;4587;51.434;6.788;2024-03-02T12:55:58;14.60;99.90
9103;DHT22;4587;51.434;6.788;2024-03-02T12:58:23;14.60;99.90
9103;DHT22;4587;51.434;6.788;2024-03-02T13:00:49;14.70;99.90
9103;DHT22;4587;51.434;6.788;2024-03-02T13:03:18;14.80;99.90
9103;DHT22;4587;51.434;6.788;2024-03-02T13:05:48;14.80;99.90
9103;DHT22;4587;51.434;6.788;2024-03-02T13:08:15;14.90;99.90
9103;DHT22;4587;51.434;6.788;2024-03-02T13:10:40;14.80;99.90
9103;DHT22;4587;51.434;6.788;2024-03-02T13:13:06;14.80;99.90
9103;DHT22;4587;51.434;6.788;2024-03-02T13:15:33;14.70;99.90
9103;DHT22;4587;51.434;6.788;2024-03-02T13:18:00;14.70;99.90
9103;DHT22;4587;51.434;6.788;2024-03-02T13:20:30;14.70;99.90
9103;DHT22;4587;51.434;6.788;2024-03-02T13:22:57;14.70;99.90
9103;DHT22;4587;51.434;6.788;2024-03-02T13:25:22;14.70;99.90
9103;DHT22;4587;51.434;6.788;2024-03-02T13:27:48;14.80;99.90
9103;DHT22;4587;51.434;6.788;2024-03-02T13:30:13;14.80;99.90
9103;DHT22;4587;51.434;6.788;2024-03-02T13:32:39;14.90;99.90
9103;DHT22;4587;51.434;6.788;2024-03-02T13:35:04;14.90;99.90
9103;DHT22;4587;51.434;6.788;2024-03-02T13:37:30;14.90;99.90
9103;DHT22;4587;51.434;6.788;2024-03-02T13:39:55;15.00;99.90
9103;DHT22;4587;51.434;6.788;2024-03-02T13:42:21;15.00;99.90
9103;DHT22;4587;51.434;6.788;2024-03-02T13:44:47;15.00;99.90
9103;DHT22;4587;51.434;6.788;2024-03-02T13:47:15;15.00;99.90
9103;DHT22;4587;51.434;6.788;2024-03-02T13:49:40;15.10;99.90
9103;DHT22;4587;51.434;6.788;2024-03-02T13:52:10;15.10;99.90
9103;DHT22;4587;51.434;6.788;2024-03-02T13:54:41;15.20;99.90
9103;DHT22;4587;51.434;6.788;2024-03-02T13:57:08;15.30;99.90
9103;DHT22;4587;51.434;6.788;2024-03-02T13:59:34;15.30;99.90
9103;DHT22;4587;51.434;6.788;2024-03-02T14:02:04;15.20;99.90
9103;DHT22;4587;51.434;6.788;2024-03-02T14:04:34;15.30;99.90
9103;DHT22;4587;51.434;6.788;2024-03-02T14:07:00;15.20;99.90
9103;DHT22;4587;51.434;6.788;2024-03-02T14:09:26;15.20;99.90
9103;DHT22;4587;51.434;6.788;2024-03-02T14:11:53;15.10;99.90
9103;DHT22;4587;51.434;6.788;2024-03-02T14:14:18;15.10;99.90
9103;DHT22;4587;51.434;6.788;2024-03-02T14:16:44;15.00;99.90
9103;DHT22;4587;51.434;6.788;2024-03-02T14:19:10;14.90;99.90
9103;DHT22;4587;51.434;6.788;2024-03-02T14:21:37;14.90;99.90
9103;DHT22;4587;51.434;6.788;2024-03-02T14:24:03;14.90;99.90
9103;DHT22;4587;51.434;6.788;2024-03-02T14:26:28;14.90;99.90
9103;DHT22;4587;51.434;6.788;2024-03-02T14:28:54;14.90;99.90
9103;DHT22;4587;51.434;6.788;2024-03-02T14:31:20;15.00;99.90
9103;DHT22;4587;51.434;6.788;2024-03-02T14:33:46;15.00;99.90
9103;DHT22;4587;51.434;6.788;2024-03-02T14:36:11;15.10;99.90
9103;DHT22;4587;51.434;6.788;2024-03-02T14:38:38;15.10;99.90
9103;DHT22;4587;51.434;6.788;2024-03-02T14:41:04;15.20;99.90
9103;DHT22;4587;51.434;6.788;2024-03-02T14:43:29;15.20;99.90
9103;DHT22;4587;51.434;6.788;2024-03-02T14:45:55;15.10;99.90
9103;DHT22;4587;51.434;6.788;2024-03-02T14:48:21;15.10;99.90
9103;DHT22;4587;51.434;6.788;2024-03-02T14:50:47;15.10;99.90
9103;DHT22;4587;51.434;6.788;2024-03-02T14:53:13;14.90;99.90
9103;DHT22;4587;51.434;6.788;2024-03-02T14:55:38;14.90;99.90
9103;DHT22;4587;51.434;6.788;2024-03-02T14:58:04;14.80;99.90
9103;DHT22;4587;51.434;6.788;2024-03-02T15:00:29;14.80;99.90
9103;DHT22;4587;51.434;6.788;2024-03-02T15:02:55;14.80;99.90
9103;DHT22;4587;51.434;6.788;2024-03-02T15:05:21;14.70;99.90
9103;DHT22;4587;51.434;6.788;2024-03-02T15:07:46;14.80;99.90
9103;DHT22;4587;51.434;6.788;2024-03-02T15:10:12;14.80;99.90
9103;DHT22;4587;51.434;6.788;2024-03-02T15:12:37;14.80;99.90
9103;DHT22;4587;51.434;6.788;2024-03-02T15:15:03;14.90;99.90
9103;DHT22;4587;51.434;6.788;2024-03-02T15:17:29;14.90;99.90
9103;DHT22;4587;51.434;6.788;2024-03-02T15:19:55;15.00;99.90
9103;DHT22;4587;51.434;6.788;2024-03-02T15:22:20;15.00;99.90
9103;DHT22;4587;51.434;6.788;2024-03-02T15:24:46;15.10;99.90
9103;DHT22;4587;51.434;6.788;2024-03-02T15:27:11;15.20;99.90
9103;DHT22;4587;51.434;6.788;2024-03-02T15:29:38;15.20;99.90
9103;DHT22;4587;51.434;6.788;2024-03-02T15:32:04;15.20;99.90
9103;DHT22;4587;51.434;6.788;2024-03-02T15:34:33;15.30;99.90
9103;DHT22;4587;51.434;6.788;2024-03-02T15:36:59;15.30;99.90
9103;DHT22;4587;51.434;6.788;2024-03-02T15:39:25;15.20;99.90
9103;DHT22;4587;51.434;6.788;2024-03-02T15:41:51;15.10;99.90
9103;DHT22;4587;51.434;6.788;2024-03-02T15:44:17;15.10;99.90
9103;DHT22;4587;51.434;6.788;2024-03-02T15:46:43;15.10;99.90
9103;DHT22;4587;51.434;6.788;2024-03-02T15:49:08;15.00;99.90
9103;DHT22;4587;51.434;6.788;2024-03-02T15:51:34;15.00;99.90
9103;DHT22;4587;51.434;6.788;2024-03-02T15:54:02;15.00;99.90
9103;DHT22;4587;51.434;6.788;2024-03-02T15:56:29;15.00;99.90
9103;DHT22;4587;51.434;6.788;2024-03-02T15:58:55;14.90;99.90
9103;DHT22;4587;51.434;6.788;2024-03-02T16:01:21;14.90;99.90
9103;DHT22;4587;51.434;6.788;2024-03-02T16:03:46;14.90;99.90
9103;DHT22;4587;51.434;6.788;2024-03-02T16:06:12;14.80;99.90
9103;DHT22;4587;51.434;6.788;2024-03-02T16:08:37;14.80;99.90
9103;DHT22;4587;51.434;6.788;2024-03-02T16:11:03;14.70;99.90
9103;DHT22;4587;51.434;6.788;2024-03-02T16:13:29;14.70;99.90
9103;DHT22;4587;51.434;6.788;2024-03-02T16:15:56;14.70;99.90
9103;DHT22;4587;51.434;6.788;2024-03-02T16:18:21;14.60;99.90